createdAt,value
2019-03-23T00:00:56.574Z,4.90
2019-03-23T00:03:57.031Z,4.80
2019-03-23T00:06:57.541Z,4.80
2019-03-23T00:09:58.851Z,4.80
2019-03-23T00:12:59.291Z,4.70
2019-03-23T00:15:59.572Z,4.80
2019-03-23T00:19:00.703Z,4.70
2019-03-23T00:22:01.229Z,4.70
2019-03-23T00:25:02.051Z,4.60
2019-03-23T00:28:02.549Z,4.50
2019-03-23T00:31:03.138Z,4.50
2019-03-23T00:34:04.069Z,4.50
2019-03-23T00:37:04.649Z,4.50
2019-03-23T00:40:05.410Z,4.50
2019-03-23T00:43:05.766Z,4.40
2019-03-23T00:46:06.636Z,4.30
2019-03-23T00:49:07.611Z,4.30
2019-03-23T00:52:08.358Z,4.30
2019-03-23T00:55:08.762Z,4.30
2019-03-23T00:58:09.247Z,4.20
2019-03-23T01:01:09.598Z,4.10
2019-03-23T01:04:10.396Z,4.10
2019-03-23T01:07:11.180Z,4.10
2019-03-23T01:10:11.726Z,4.10
2019-03-23T01:13:12.333Z,4.10
2019-03-23T01:16:13.426Z,4.00
2019-03-23T01:19:14.265Z,4.00
2019-03-23T01:22:14.590Z,4.00
2019-03-23T01:25:15.054Z,3.90
2019-03-23T01:28:15.466Z,3.80
2019-03-23T01:31:16.237Z,3.90
2019-03-23T01:34:16.970Z,3.80
2019-03-23T01:37:17.241Z,3.80
2019-03-23T01:40:17.673Z,3.70
2019-03-23T01:43:18.090Z,3.70
2019-03-23T01:46:19.139Z,3.70
2019-03-23T01:49:20.335Z,3.60
2019-03-23T01:52:20.795Z,3.50
2019-03-23T01:55:21.652Z,3.50
2019-03-23T01:58:22.810Z,3.50
2019-03-23T02:01:23.145Z,3.50
2019-03-23T02:04:23.832Z,3.40
2019-03-23T02:07:24.410Z,3.30
2019-03-23T02:10:25.572Z,3.40
2019-03-23T02:13:26.169Z,3.40
2019-03-23T02:16:26.597Z,3.40
2019-03-23T02:19:26.975Z,3.30
2019-03-23T02:22:27.522Z,3.30
2019-03-23T02:25:27.882Z,3.20
2019-03-23T02:28:28.264Z,3.20
2019-03-23T02:31:29.427Z,3.20
2019-03-23T02:34:30.599Z,3.10
2019-03-23T02:37:31.003Z,3.00
2019-03-23T02:40:31.720Z,2.90
2019-03-23T02:43:32.460Z,3.00
2019-03-23T02:46:32.997Z,2.90
2019-03-23T02:49:33.334Z,2.90
2019-03-23T02:52:33.885Z,2.90
2019-03-23T02:55:34.216Z,2.90
2019-03-23T02:58:34.538Z,2.90
2019-03-23T03:01:35.147Z,2.80
2019-03-23T03:04:35.611Z,2.80
2019-03-23T03:07:42.630Z,2.70
2019-03-23T03:10:38.675Z,2.70
2019-03-23T03:13:39.257Z,2.80
2019-03-23T03:16:40.127Z,2.70
2019-03-23T03:19:40.455Z,2.70
2019-03-23T03:22:40.819Z,2.60
2019-03-23T03:25:41.497Z,2.60
2019-03-23T03:28:42.025Z,2.60
2019-03-23T03:31:42.423Z,2.60
2019-03-23T03:34:43.580Z,2.60
2019-03-23T03:37:55.820Z,2.60
2019-03-23T03:40:53.555Z,2.50
2019-03-23T03:43:54.196Z,2.50
2019-03-23T03:46:54.603Z,2.50
2019-03-23T03:49:55.772Z,2.50
2019-03-23T03:52:56.145Z,2.50
2019-03-23T03:55:56.680Z,2.40
2019-03-23T03:58:57.875Z,2.40
2019-03-23T04:01:58.618Z,2.50
2019-03-23T04:04:59.073Z,2.30
2019-03-23T04:08:10.453Z,2.30
2019-03-23T04:11:02.105Z,2.30
2019-03-23T04:14:02.625Z,2.30
2019-03-23T04:17:03.537Z,2.30
2019-03-23T04:20:04.075Z,2.20
2019-03-23T04:23:04.658Z,2.20
2019-03-23T04:26:05.220Z,2.20
2019-03-23T04:29:05.566Z,2.20
2019-03-23T04:32:06.154Z,2.20
2019-03-23T04:35:06.588Z,2.20
2019-03-23T04:38:07.018Z,2.10
2019-03-23T04:41:08.057Z,2.10
2019-03-23T04:44:08.769Z,2.00
2019-03-23T04:47:09.227Z,2.10
2019-03-23T04:50:09.598Z,2.10
2019-03-23T04:53:10.661Z,2.10
2019-03-23T04:56:11.129Z,2.10
2019-03-23T04:59:11.389Z,2.00
2019-03-23T05:02:12.068Z,2.00
2019-03-23T05:05:12.580Z,2.00
2019-03-23T05:08:13.429Z,1.90
2019-03-23T05:11:14.078Z,1.90
2019-03-23T05:14:14.920Z,1.90
2019-03-23T05:17:15.230Z,1.90
2019-03-23T05:20:15.540Z,1.90
2019-03-23T05:23:16.041Z,1.90
2019-03-23T05:26:16.767Z,1.90
2019-03-23T05:29:17.303Z,1.90
2019-03-23T05:32:17.922Z,1.80
2019-03-23T05:35:19.001Z,1.80
2019-03-23T05:38:19.731Z,1.80
2019-03-23T05:41:20.401Z,1.90
2019-03-23T05:44:20.678Z,1.90
2019-03-23T05:47:21.042Z,1.80
2019-03-23T05:50:21.498Z,1.90
2019-03-23T05:53:22.660Z,1.90
2019-03-23T05:56:23.094Z,1.90
2019-03-23T05:59:23.476Z,2.00
2019-03-23T06:02:23.799Z,2.10
2019-03-23T06:05:24.756Z,2.10
2019-03-23T06:08:25.917Z,2.10
2019-03-23T06:11:27.106Z,2.20
2019-03-23T06:14:27.482Z,2.30
2019-03-23T06:17:27.790Z,2.40
2019-03-23T06:20:28.353Z,2.50
2019-03-23T06:23:28.578Z,2.60
2019-03-23T06:26:29.145Z,2.60
2019-03-23T06:29:29.617Z,2.70
2019-03-23T06:32:30.067Z,2.80
2019-03-23T06:35:30.359Z,2.90
2019-03-23T06:38:30.714Z,3.10
2019-03-23T06:41:31.393Z,3.30
2019-03-23T06:44:31.930Z,3.40
2019-03-23T06:47:33.074Z,3.60
2019-03-23T06:50:34.484Z,3.70
2019-03-23T06:53:34.911Z,3.90
2019-03-23T06:56:35.317Z,4.00
2019-03-23T06:59:36.378Z,4.20
2019-03-23T07:02:37.038Z,4.30
2019-03-23T07:05:37.789Z,4.50
2019-03-23T07:08:38.318Z,4.70
2019-03-23T07:11:38.709Z,4.80
2019-03-23T07:14:39.355Z,5.00
2019-03-23T07:17:40.046Z,5.30
2019-03-23T07:20:40.485Z,5.40
2019-03-23T07:23:41.280Z,5.50
2019-03-23T07:26:41.746Z,5.70
2019-03-23T07:29:42.270Z,5.90
2019-03-23T07:32:42.602Z,6.10
2019-03-23T07:35:43.018Z,6.30
2019-03-23T07:38:43.401Z,6.40
2019-03-23T07:41:43.887Z,6.70
2019-03-23T07:44:44.205Z,7.00
2019-03-23T07:47:44.564Z,7.20
2019-03-23T07:50:44.975Z,7.50
2019-03-23T07:53:45.950Z,7.70
2019-03-23T07:56:46.452Z,7.80
2019-03-23T07:59:47.710Z,8.20
2019-03-23T08:02:47.977Z,8.60
2019-03-23T08:05:48.730Z,8.80
2019-03-23T08:08:49.259Z,9.00
2019-03-23T08:11:49.798Z,9.30
2019-03-23T08:14:50.308Z,9.40
2019-03-23T08:17:51.087Z,9.80
2019-03-23T08:20:51.622Z,10.50
2019-03-23T08:23:52.295Z,11.50
2019-03-23T08:26:53.053Z,12.20
2019-03-23T08:29:54.346Z,12.70
2019-03-23T08:32:54.622Z,13.40
2019-03-23T08:35:55.911Z,13.70
2019-03-23T08:38:57.493Z,13.90
2019-03-23T08:41:58.785Z,14.20
2019-03-23T08:45:00.205Z,14.40
2019-03-23T08:48:01.719Z,14.80
2019-03-23T08:51:02.734Z,15.30
2019-03-23T08:54:04.224Z,15.20
2019-03-23T08:57:05.367Z,15.50
2019-03-23T09:00:06.933Z,15.90
2019-03-23T09:03:08.635Z,16.50
2019-03-23T09:06:10.186Z,17.80
2019-03-23T09:09:11.508Z,18.60
2019-03-23T09:12:13.106Z,19.20
2019-03-23T09:15:14.631Z,19.50
2019-03-23T09:18:15.640Z,19.70
2019-03-23T09:21:17.411Z,19.80
2019-03-23T09:24:18.730Z,20.00
2019-03-23T09:27:20.447Z,20.10
2019-03-23T09:30:21.946Z,20.60
2019-03-23T09:33:22.972Z,21.20
2019-03-23T09:36:24.459Z,21.10
2019-03-23T09:39:25.496Z,20.90
2019-03-23T09:42:26.881Z,21.30
2019-03-23T09:45:28.629Z,22.00
2019-03-23T09:48:29.763Z,22.00
2019-03-23T09:51:31.496Z,22.70
2019-03-23T09:54:32.968Z,23.50
2019-03-23T09:57:34.588Z,23.70
2019-03-23T10:00:35.931Z,24.40
2019-03-23T10:03:37.487Z,24.70
2019-03-23T10:06:38.686Z,24.60
2019-03-23T10:09:40.242Z,23.00
2019-03-23T10:12:41.842Z,24.00
2019-03-23T10:15:43.351Z,24.10
2019-03-23T10:18:44.992Z,25.00
2019-03-23T10:21:46.419Z,25.70
2019-03-23T10:24:48.067Z,26.60
2019-03-23T10:27:48.917Z,25.70
2019-03-23T10:30:50.565Z,26.50
2019-03-23T10:33:55.450Z,26.80
2019-03-23T10:36:56.288Z,25.60
2019-03-23T10:39:57.151Z,26.00
2019-03-23T10:42:58.453Z,26.20
2019-03-23T10:45:59.854Z,27.30
2019-03-23T10:49:00.586Z,27.40
2019-03-23T10:52:02.040Z,27.20
2019-03-23T10:55:03.059Z,27.40
2019-03-23T10:58:04.393Z,27.40
2019-03-23T11:01:05.268Z,27.00
2019-03-23T11:04:05.962Z,25.80
2019-03-23T11:07:07.413Z,26.90
2019-03-23T11:10:08.970Z,28.10
2019-03-23T11:13:09.564Z,28.90
2019-03-23T11:16:10.934Z,28.20
2019-03-23T11:19:13.502Z,27.90
2019-03-23T11:22:14.797Z,27.50
2019-03-23T11:25:16.179Z,26.90
2019-03-23T11:28:17.616Z,26.60
2019-03-23T11:31:19.103Z,26.40
2019-03-23T11:34:17.258Z,27.00
2019-03-23T11:37:17.991Z,27.30
2019-03-23T11:40:18.765Z,29.00
2019-03-23T11:44:54.376Z,29.90
2019-03-23T11:47:55.798Z,30.60
2019-03-23T11:50:56.841Z,29.80
2019-03-23T11:53:57.713Z,30.80
2019-03-23T11:56:58.837Z,31.90
2019-03-23T11:59:59.382Z,31.80
2019-03-23T12:03:01.298Z,32.70
2019-03-23T12:06:02.062Z,31.60
2019-03-23T12:09:04.591Z,32.30
2019-03-23T12:12:05.330Z,32.50
2019-03-23T12:15:06.393Z,31.70
2019-03-23T12:18:07.969Z,31.70
2019-03-23T12:21:08.806Z,32.70
2019-03-23T12:24:09.687Z,32.60
2019-03-23T12:27:10.522Z,30.40
2019-03-23T12:30:11.329Z,31.60
2019-03-23T12:33:12.042Z,30.50
2019-03-23T12:36:13.569Z,30.80
2019-03-23T12:39:14.908Z,31.80
2019-03-23T12:42:16.205Z,31.00
2019-03-23T12:45:16.997Z,31.70
2019-03-23T12:48:17.886Z,32.80
2019-03-23T12:51:18.605Z,31.40
2019-03-23T12:54:20.132Z,30.90
2019-03-23T12:57:21.700Z,32.10
2019-03-23T13:00:23.213Z,32.50
2019-03-23T13:03:23.928Z,32.40
2019-03-23T13:06:24.652Z,32.60
2019-03-23T13:09:13.837Z,32.50
2019-03-23T13:12:22.061Z,31.10
2019-03-23T13:15:22.914Z,32.20
2019-03-23T13:18:27.373Z,32.60
2019-03-23T13:21:14.576Z,30.40
2019-03-23T13:24:22.826Z,31.60
2019-03-23T13:27:24.325Z,32.10
2019-03-23T13:30:25.215Z,32.40
2019-03-23T13:33:25.719Z,31.90
2019-03-23T13:36:27.482Z,31.50
2019-03-23T13:39:34.824Z,32.60
2019-03-23T13:42:35.607Z,31.60
2019-03-23T13:45:42.582Z,30.30
2019-03-23T13:48:39.193Z,31.70
2019-03-23T13:51:40.162Z,28.90
2019-03-23T13:54:41.054Z,28.70
2019-03-23T13:57:41.818Z,30.50
2019-03-23T14:00:42.464Z,31.50
2019-03-23T14:03:43.221Z,32.40
2019-03-23T14:06:43.999Z,32.40
2019-03-23T14:09:44.756Z,30.50
2019-03-23T14:12:45.442Z,30.80
2019-03-23T14:15:46.102Z,31.70
2019-03-23T14:18:46.985Z,31.10
2019-03-23T14:21:47.840Z,31.60
2019-03-23T14:24:48.601Z,31.30
2019-03-23T14:27:50.178Z,29.00
2019-03-23T14:30:51.589Z,30.40
2019-03-23T14:33:52.330Z,31.20
2019-03-23T14:36:53.815Z,31.60
2019-03-23T14:39:55.340Z,31.20
2019-03-23T14:42:56.614Z,32.20
2019-03-23T14:45:57.734Z,31.60
2019-03-23T14:49:01.655Z,31.00
2019-03-23T14:52:01.951Z,31.40
2019-03-23T14:55:02.768Z,30.80
2019-03-23T14:58:04.458Z,31.50
2019-03-23T15:01:05.681Z,29.10
2019-03-23T15:04:07.164Z,30.10
2019-03-23T15:07:08.528Z,31.00
2019-03-23T15:10:09.918Z,30.70
2019-03-23T15:13:10.566Z,31.20
2019-03-23T15:16:11.633Z,30.30
2019-03-23T15:19:12.399Z,29.90
2019-03-23T15:22:13.839Z,30.40
2019-03-23T15:25:14.548Z,30.60
2019-03-23T15:28:15.936Z,30.20
2019-03-23T15:31:17.017Z,29.90
2019-03-23T15:34:17.910Z,30.30
2019-03-23T15:37:19.378Z,30.30
2019-03-23T15:40:20.006Z,29.50
2019-03-23T15:43:20.634Z,29.20
2019-03-23T15:46:21.446Z,29.20
2019-03-23T15:49:23.007Z,28.50
2019-03-23T15:52:23.838Z,27.90
2019-03-23T15:55:25.083Z,27.70
2019-03-23T15:58:26.597Z,27.00
2019-03-23T16:01:27.225Z,26.30
2019-03-23T16:04:28.517Z,24.40
2019-03-23T16:07:30.037Z,23.50
2019-03-23T16:10:31.712Z,23.30
2019-03-23T16:13:33.196Z,23.00
2019-03-23T16:16:34.658Z,22.40
2019-03-23T16:19:36.065Z,22.10
2019-03-23T16:22:37.365Z,22.50
2019-03-23T16:25:39.249Z,22.60
2019-03-23T16:28:28.719Z,22.50
2019-03-23T16:31:37.252Z,22.80
2019-03-23T16:34:38.219Z,22.90
2019-03-23T16:37:40.009Z,23.20
2019-03-23T16:40:48.774Z,22.70
2019-03-23T16:43:50.463Z,22.10
2019-03-23T16:46:52.338Z,21.80
2019-03-23T16:49:54.066Z,22.20
2019-03-23T16:52:55.897Z,22.30
2019-03-23T16:55:57.530Z,21.50
2019-03-23T16:58:59.348Z,21.70
2019-03-23T17:02:00.715Z,21.60
2019-03-23T17:05:02.378Z,21.10
2019-03-23T17:08:03.285Z,20.80
2019-03-23T17:11:05.241Z,20.90
2019-03-23T17:14:06.688Z,20.30
2019-03-23T17:17:07.943Z,20.10
2019-03-23T17:20:09.756Z,19.70
2019-03-23T17:23:11.486Z,19.40
2019-03-23T17:26:13.139Z,19.30
2019-03-23T17:29:14.293Z,18.80
2019-03-23T17:32:15.187Z,18.60
2019-03-23T17:35:16.815Z,18.60
2019-03-23T17:38:17.730Z,18.50
2019-03-23T17:41:18.239Z,18.70
2019-03-23T17:44:18.777Z,18.60
2019-03-23T17:47:19.520Z,18.40
2019-03-23T17:50:20.530Z,18.20
2019-03-23T17:53:21.431Z,18.20
2019-03-23T17:56:22.145Z,18.00
2019-03-23T17:59:22.887Z,17.70
2019-03-23T18:02:23.501Z,17.50
2019-03-23T18:05:24.233Z,17.40
2019-03-23T18:08:24.830Z,17.20
2019-03-23T18:11:26.426Z,16.90
2019-03-23T18:14:27.811Z,16.90
2019-03-23T18:17:28.522Z,16.80
2019-03-23T18:20:29.654Z,16.70
2019-03-23T18:23:30.459Z,16.50
2019-03-23T18:26:31.869Z,16.40
2019-03-23T18:29:32.693Z,16.30
2019-03-23T18:32:34.212Z,16.10
2019-03-23T18:35:34.851Z,15.90
2019-03-23T18:38:36.438Z,15.60
2019-03-23T18:41:37.687Z,15.60
2019-03-23T18:44:38.391Z,15.40
2019-03-23T18:47:39.231Z,15.20
2019-03-23T18:50:39.976Z,15.00
2019-03-23T18:53:40.797Z,14.90
2019-03-23T18:56:41.782Z,14.80
2019-03-23T18:59:43.077Z,14.50
2019-03-23T19:02:43.654Z,14.50
2019-03-23T19:05:44.622Z,14.60
2019-03-23T19:08:45.457Z,14.50
2019-03-23T19:11:47.014Z,14.20
2019-03-23T19:14:47.826Z,14.20
2019-03-23T19:17:48.662Z,14.20
2019-03-23T19:20:49.480Z,14.10
2019-03-23T19:23:50.587Z,14.10
2019-03-23T19:26:51.474Z,13.90
2019-03-23T19:29:52.106Z,13.90
2019-03-23T19:32:41.096Z,13.80
2019-03-23T19:35:49.499Z,13.60
2019-03-23T19:38:50.862Z,13.50
2019-03-23T19:41:51.891Z,13.40
2019-03-23T19:44:52.976Z,13.30
2019-03-23T19:47:53.639Z,13.10
2019-03-23T19:50:54.611Z,13.00
2019-03-23T19:53:56.144Z,12.90
2019-03-23T19:56:57.071Z,12.70
2019-03-23T19:59:58.022Z,12.70
2019-03-23T20:02:58.920Z,12.70
2019-03-23T20:06:00.541Z,12.50
2019-03-23T20:09:01.398Z,12.40
2019-03-23T20:12:02.081Z,12.30
2019-03-23T20:15:02.763Z,12.10
2019-03-23T20:18:03.668Z,12.20
2019-03-23T20:21:04.822Z,12.10
2019-03-23T20:24:05.934Z,12.10
2019-03-23T20:27:06.891Z,12.10
2019-03-23T20:30:07.451Z,12.00
2019-03-23T20:33:15.293Z,11.80
2019-03-23T20:36:10.471Z,11.70
2019-03-23T20:39:10.982Z,11.10
2019-03-23T20:42:11.345Z,10.70
2019-03-23T20:45:11.855Z,10.30
2019-03-23T20:48:12.498Z,10.30
2019-03-23T20:51:12.851Z,10.10
2019-03-23T20:54:13.793Z,10.00
2019-03-23T20:57:23.390Z,9.80
2019-03-23T21:00:16.813Z,9.90
2019-03-23T21:03:17.593Z,9.80
2019-03-23T21:06:18.690Z,9.70
2019-03-23T21:09:19.211Z,9.80
2019-03-23T21:12:19.822Z,9.70
2019-03-23T21:15:20.213Z,9.60
2019-03-23T21:18:20.821Z,9.40
2019-03-23T21:21:21.627Z,9.30
2019-03-23T21:24:22.118Z,9.20
2019-03-23T21:27:22.434Z,9.20
2019-03-23T21:30:22.787Z,9.00
2019-03-23T21:33:23.099Z,9.00
2019-03-23T21:36:24.304Z,8.80
2019-03-23T21:39:25.299Z,8.70
2019-03-23T21:42:25.707Z,8.70
2019-03-23T21:45:26.401Z,8.60
2019-03-23T21:48:26.798Z,8.60
2019-03-23T21:51:27.060Z,8.40
2019-03-23T21:54:27.726Z,8.30
2019-03-23T21:57:28.176Z,8.30
2019-03-23T22:00:28.967Z,8.30
2019-03-23T22:03:29.411Z,8.20
2019-03-23T22:06:30.259Z,8.10
2019-03-23T22:09:30.862Z,8.00
2019-03-23T22:12:31.215Z,7.90
2019-03-23T22:15:32.979Z,7.90
2019-03-23T22:18:33.882Z,7.90
2019-03-23T22:21:34.716Z,7.80
2019-03-23T22:24:35.423Z,7.70
2019-03-23T22:27:35.904Z,7.70
2019-03-23T22:30:36.544Z,7.50
2019-03-23T22:33:37.513Z,7.40
2019-03-23T22:36:38.162Z,7.30
2019-03-23T22:39:38.643Z,7.20
2019-03-23T22:42:39.074Z,7.20
2019-03-23T22:45:39.491Z,7.20
2019-03-23T22:48:40.077Z,7.20
2019-03-23T22:51:41.233Z,7.10
2019-03-23T22:54:41.990Z,7.10
2019-03-23T22:57:43.154Z,7.00
2019-03-23T23:00:45.167Z,7.00
2019-03-23T23:03:45.778Z,7.00
2019-03-23T23:06:46.805Z,6.80
2019-03-23T23:09:47.309Z,6.70
2019-03-23T23:12:48.024Z,6.70
2019-03-23T23:15:48.495Z,6.60
2019-03-23T23:18:49.128Z,6.60
2019-03-23T23:21:50.141Z,6.50
2019-03-23T23:24:51.416Z,6.40
2019-03-23T23:27:51.725Z,6.40
2019-03-23T23:30:52.461Z,6.30
2019-03-23T23:33:52.737Z,6.30
2019-03-23T23:36:53.399Z,6.30
2019-03-23T23:39:53.909Z,6.30
2019-03-23T23:42:54.506Z,5.90
2019-03-23T23:45:54.926Z,5.90
2019-03-23T23:48:55.580Z,6.00
2019-03-23T23:51:55.989Z,6.00
2019-03-23T23:54:56.310Z,6.00
2019-03-23T23:57:56.810Z,5.90
